sensor_id;sensor_type;location;lat;lon;timestamp;temperature;humidity
75457;SHT31;64036;48.266;14.192;2023-04-06T00:05:43;1.63;57.50
75457;SHT31;64036;48.266;14.192;2023-04-06T00:12:03;1.59;56.97
75457;SHT31;64036;48.266;14.192;2023-04-06T00:18:11;1.53;58.20
75457;SHT31;64036;48.266;14.192;2023-04-06T00:20:53;1.50;58.70
75457;SHT31;64036;48.266;14.192;2023-04-06T00:26:54;1.43;58.17
75457;SHT31;64036;48.266;14.192;2023-04-06T00:29:53;1.38;58.11
75457;SHT31;64036;48.266;14.192;2023-04-06T00:42:52;1.20;59.00
75457;SHT31;64036;48.266;14.192;2023-04-06T00:45:56;1.11;59.12
75457;SHT31;64036;48.266;14.192;2023-04-06T00:52:05;0.96;58.92
75457;SHT31;64036;48.266;14.192;2023-04-06T01:01:36;0.85;58.97
75457;SHT31;64036;48.266;14.192;2023-04-06T01:08:36;0.70;59.30
75457;SHT31;64036;48.266;14.192;2023-04-06T01:15:32;0.67;59.13
75457;SHT31;64036;48.266;14.192;2023-04-06T01:18:48;0.62;59.20
75457;SHT31;64036;48.266;14.192;2023-04-06T01:25:21;0.56;58.93
75457;SHT31;64036;48.266;14.192;2023-04-06T01:34:37;0.50;59.37
75457;SHT31;64036;48.266;14.192;2023-04-06T01:37:29;0.47;59.35
75457;SHT31;64036;48.266;14.192;2023-04-06T01:44:04;0.38;59.78
75457;SHT31;64036;48.266;14.192;2023-04-06T01:50:51;0.32;60.32
75457;SHT31;64036;48.266;14.192;2023-04-06T01:53:55;0.28;60.59
75457;SHT31;64036;48.266;14.192;2023-04-06T02:00:36;0.16;61.19
75457;SHT31;64036;48.266;14.192;2023-04-06T02:10:36;-0.01;61.45
75457;SHT31;64036;48.266;14.192;2023-04-06T02:13:42;-0.06;61.57
75457;SHT31;64036;48.266;14.192;2023-04-06T02:20:32;-0.16;62.59
75457;SHT31;64036;48.266;14.192;2023-04-06T02:27:40;-0.22;62.83
75457;SHT31;64036;48.266;14.192;2023-04-06T02:30:36;-0.25;62.86
75457;SHT31;64036;48.266;14.192;2023-04-06T02:41:00;-0.36;63.25
75457;SHT31;64036;48.266;14.192;2023-04-06T02:44:10;-0.36;63.10
75457;SHT31;64036;48.266;14.192;2023-04-06T02:50:09;-0.37;63.19
75457;SHT31;64036;48.266;14.192;2023-04-06T03:00:17;-0.43;63.20
75457;SHT31;64036;48.266;14.192;2023-04-06T03:07:19;-0.46;63.25
75457;SHT31;64036;48.266;14.192;2023-04-06T03:13:28;-0.52;63.45
75457;SHT31;64036;48.266;14.192;2023-04-06T03:26:14;-0.64;64.62
75457;SHT31;64036;48.266;14.192;2023-04-06T03:36:18;-0.90;65.80
75457;SHT31;64036;48.266;14.192;2023-04-06T03:45:55;-0.92;65.22
75457;SHT31;64036;48.266;14.192;2023-04-06T03:56:05;-0.95;66.44
75457;SHT31;64036;48.266;14.192;2023-04-06T03:59:34;-0.99;66.31
75457;SHT31;64036;48.266;14.192;2023-04-06T04:02:52;-1.02;66.22
75457;SHT31;64036;48.266;14.192;2023-04-06T04:13:19;-1.16;66.77
75457;SHT31;64036;48.266;14.192;2023-04-06T04:20:19;-1.22;67.06
75457;SHT31;64036;48.266;14.192;2023-04-06T04:30:33;-1.36;67.80
75457;SHT31;64036;48.266;14.192;2023-04-06T04:54:06;-0.84;68.06
75457;SHT31;64036;48.266;14.192;2023-04-06T05:00:53;-0.11;67.20
75457;SHT31;64036;48.266;14.192;2023-04-06T05:04:21;0.41;66.75
75457;SHT31;64036;48.266;14.192;2023-04-06T05:07:27;0.92;66.45
75457;SHT31;64036;48.266;14.192;2023-04-06T05:10:25;1.60;65.76
75457;SHT31;64036;48.266;14.192;2023-04-06T05:13:03;2.30;64.78
75457;SHT31;64036;48.266;14.192;2023-04-06T05:15:34;2.97;63.56
75457;SHT31;64036;48.266;14.192;2023-04-06T05:18:08;3.67;62.62
75457;SHT31;64036;48.266;14.192;2023-04-06T05:20:43;4.19;61.22
75457;SHT31;64036;48.266;14.192;2023-04-06T05:23:15;4.33;60.96
75457;SHT31;64036;48.266;14.192;2023-04-06T05:25:52;4.27;60.47
75457;SHT31;64036;48.266;14.192;2023-04-06T05:28:26;4.23;59.94
75457;SHT31;64036;48.266;14.192;2023-04-06T05:31:09;4.23;59.28
75457;SHT31;64036;48.266;14.192;2023-04-06T05:33:43;4.25;58.92
75457;SHT31;64036;48.266;14.192;2023-04-06T05:36:22;4.25;58.90
75457;SHT31;64036;48.266;14.192;2023-04-06T05:39:07;4.27;58.80
75457;SHT31;64036;48.266;14.192;2023-04-06T05:41:48;4.28;58.74
75457;SHT31;64036;48.266;14.192;2023-04-06T05:44:14;4.28;58.88
75457;SHT31;64036;48.266;14.192;2023-04-06T05:46:40;4.28;58.66
75457;SHT31;64036;48.266;14.192;2023-04-06T05:49:06;4.26;58.64
75457;SHT31;64036;48.266;14.192;2023-04-06T05:51:31;4.23;58.81
75457;SHT31;64036;48.266;14.192;2023-04-06T05:54:41;4.12;59.23
75457;SHT31;64036;48.266;14.192;2023-04-06T06:03:04;3.85;59.63
75457;SHT31;64036;48.266;14.192;2023-04-06T06:05:49;3.77;60.02
75457;SHT31;64036;48.266;14.192;2023-04-06T06:09:03;3.57;60.90
75457;SHT31;64036;48.266;14.192;2023-04-06T06:14:42;3.19;61.37
75457;SHT31;64036;48.266;14.192;2023-04-06T06:17:12;3.07;61.74
75457;SHT31;64036;48.266;14.192;2023-04-06T06:19:40;3.06;61.89
75457;SHT31;64036;48.266;14.192;2023-04-06T06:22:12;3.05;62.02
75457;SHT31;64036;48.266;14.192;2023-04-06T06:25:14;3.01;61.78
75457;SHT31;64036;48.266;14.192;2023-04-06T06:27:56;3.03;62.08
75457;SHT31;64036;48.266;14.192;2023-04-06T06:30:53;3.14;62.34
75457;SHT31;64036;48.266;14.192;2023-04-06T06:36:48;3.34;62.48
75457;SHT31;64036;48.266;14.192;2023-04-06T06:39:33;3.48;62.72
75457;SHT31;64036;48.266;14.192;2023-04-06T06:42:21;3.68;62.53
75457;SHT31;64036;48.266;14.192;2023-04-06T06:45:17;3.86;62.41
75457;SHT31;64036;48.266;14.192;2023-04-06T06:48:21;4.06;62.03
75457;SHT31;64036;48.266;14.192;2023-04-06T06:51:00;4.26;61.67
75457;SHT31;64036;48.266;14.192;2023-04-06T06:54:25;4.48;60.51
75457;SHT31;64036;48.266;14.192;2023-04-06T07:00:09;4.90;59.26
75457;SHT31;64036;48.266;14.192;2023-04-06T07:03:15;5.07;58.62
75457;SHT31;64036;48.266;14.192;2023-04-06T07:05:55;5.22;58.16
75457;SHT31;64036;48.266;14.192;2023-04-06T07:08:39;5.45;58.07
75457;SHT31;64036;48.266;14.192;2023-04-06T07:11:09;5.66;57.16
75457;SHT31;64036;48.266;14.192;2023-04-06T07:13:55;5.83;56.26
75457;SHT31;64036;48.266;14.192;2023-04-06T07:16:48;5.94;56.03
75457;SHT31;64036;48.266;14.192;2023-04-06T07:19:22;5.93;55.38
75457;SHT31;64036;48.266;14.192;2023-04-06T07:22:07;5.76;55.36
75457;SHT31;64036;48.266;14.192;2023-04-06T07:24:48;5.59;55.68
75457;SHT31;64036;48.266;14.192;2023-04-06T07:27:14;5.59;55.88
75457;SHT31;64036;48.266;14.192;2023-04-06T07:29:51;5.57;56.05
75457;SHT31;64036;48.266;14.192;2023-04-06T07:32:28;5.59;56.07
75457;SHT31;64036;48.266;14.192;2023-04-06T07:35:17;5.61;56.02
75457;SHT31;64036;48.266;14.192;2023-04-06T07:38:21;5.54;56.16
75457;SHT31;64036;48.266;14.192;2023-04-06T07:41:05;5.57;56.29
75457;SHT31;64036;48.266;14.192;2023-04-06T07:43:53;5.69;56.48
75457;SHT31;64036;48.266;14.192;2023-04-06T07:46:22;5.85;56.26
75457;SHT31;64036;48.266;14.192;2023-04-06T07:48:56;6.02;56.09
75457;SHT31;64036;48.266;14.192;2023-04-06T07:51:33;6.11;56.31
75457;SHT31;64036;48.266;14.192;2023-04-06T07:54:27;6.16;56.33
75457;SHT31;64036;48.266;14.192;2023-04-06T07:57:14;6.25;55.87
75457;SHT31;64036;48.266;14.192;2023-04-06T07:59:53;6.26;56.27
75457;SHT31;64036;48.266;14.192;2023-04-06T08:02:21;6.25;55.91
75457;SHT31;64036;48.266;14.192;2023-04-06T08:04:50;6.33;55.63
75457;SHT31;64036;48.266;14.192;2023-04-06T08:07:20;6.57;55.09
75457;SHT31;64036;48.266;14.192;2023-04-06T08:09:46;6.89;54.56
75457;SHT31;64036;48.266;14.192;2023-04-06T08:12:12;7.27;53.54
75457;SHT31;64036;48.266;14.192;2023-04-06T08:14:43;7.61;53.58
75457;SHT31;64036;48.266;14.192;2023-04-06T08:17:27;8.14;53.15
75457;SHT31;64036;48.266;14.192;2023-04-06T08:19:58;8.57;51.66
75457;SHT31;64036;48.266;14.192;2023-04-06T08:22:24;8.92;51.51
75457;SHT31;64036;48.266;14.192;2023-04-06T08:25:01;9.51;50.83
75457;SHT31;64036;48.266;14.192;2023-04-06T08:27:27;10.11;49.57
75457;SHT31;64036;48.266;14.192;2023-04-06T08:29:53;10.47;48.19
75457;SHT31;64036;48.266;14.192;2023-04-06T08:32:18;10.74;47.52
75457;SHT31;64036;48.266;14.192;2023-04-06T08:34:47;11.31;47.27
75457;SHT31;64036;48.266;14.192;2023-04-06T08:37:12;11.80;46.87
75457;SHT31;64036;48.266;14.192;2023-04-06T08:39:38;12.22;45.31
75457;SHT31;64036;48.266;14.192;2023-04-06T08:42:03;12.75;43.89
75457;SHT31;64036;48.266;14.192;2023-04-06T08:44:31;13.23;41.58
75457;SHT31;64036;48.266;14.192;2023-04-06T08:46:57;13.62;41.18
75457;SHT31;64036;48.266;14.192;2023-04-06T08:49:24;13.81;40.47
75457;SHT31;64036;48.266;14.192;2023-04-06T08:51:51;14.11;41.24
75457;SHT31;64036;48.266;14.192;2023-04-06T08:54:17;15.05;39.90
75457;SHT31;64036;48.266;14.192;2023-04-06T08:56:42;16.33;37.26
75457;SHT31;64036;48.266;14.192;2023-04-06T08:59:08;17.02;35.64
75457;SHT31;64036;48.266;14.192;2023-04-06T09:01:36;17.35;35.86
75457;SHT31;64036;48.266;14.192;2023-04-06T09:04:06;17.70;34.79
75457;SHT31;64036;48.266;14.192;2023-04-06T09:06:36;17.82;33.28
75457;SHT31;64036;48.266;14.192;2023-04-06T09:09:02;17.94;32.42
75457;SHT31;64036;48.266;14.192;2023-04-06T09:11:28;17.92;32.50
75457;SHT31;64036;48.266;14.192;2023-04-06T09:13:55;18.07;32.45
75457;SHT31;64036;48.266;14.192;2023-04-06T09:16:22;18.70;31.70
75457;SHT31;64036;48.266;14.192;2023-04-06T09:18:48;19.04;30.26
75457;SHT31;64036;48.266;14.192;2023-04-06T09:21:18;19.32;30.01
75457;SHT31;64036;48.266;14.192;2023-04-06T09:23:45;19.86;29.66
75457;SHT31;64036;48.266;14.192;2023-04-06T09:26:13;20.50;28.39
75457;SHT31;64036;48.266;14.192;2023-04-06T09:28:43;20.97;27.40
75457;SHT31;64036;48.266;14.192;2023-04-06T09:31:14;21.14;27.32
75457;SHT31;64036;48.266;14.192;2023-04-06T09:33:42;21.20;27.18
75457;SHT31;64036;48.266;14.192;2023-04-06T09:36:10;21.31;26.96
75457;SHT31;64036;48.266;14.192;2023-04-06T09:38:50;21.60;27.17
75457;SHT31;64036;48.266;14.192;2023-04-06T09:41:23;21.97;26.16
75457;SHT31;64036;48.266;14.192;2023-04-06T09:44:03;22.10;26.36
75457;SHT31;64036;48.266;14.192;2023-04-06T09:46:31;22.37;25.66
75457;SHT31;64036;48.266;14.192;2023-04-06T09:49:05;22.27;25.66
75457;SHT31;64036;48.266;14.192;2023-04-06T09:54:18;21.84;25.71
75457;SHT31;64036;48.266;14.192;2023-04-06T09:56:47;21.83;26.16
75457;SHT31;64036;48.266;14.192;2023-04-06T09:59:44;21.97;25.16
75457;SHT31;64036;48.266;14.192;2023-04-06T10:03:07;22.01;24.69
75457;SHT31;64036;48.266;14.192;2023-04-06T10:08:07;21.83;24.06
75457;SHT31;64036;48.266;14.192;2023-04-06T10:10:35;21.51;24.45
75457;SHT31;64036;48.266;14.192;2023-04-06T10:13:02;21.11;24.01
75457;SHT31;64036;48.266;14.192;2023-04-06T10:15:29;20.39;24.12
75457;SHT31;64036;48.266;14.192;2023-04-06T10:17:56;20.20;24.47
75457;SHT31;64036;48.266;14.192;2023-04-06T10:20:25;20.33;24.43
75457;SHT31;64036;48.266;14.192;2023-04-06T10:25:52;20.45;23.93
75457;SHT31;64036;48.266;14.192;2023-04-06T10:28:23;19.96;24.67
75457;SHT31;64036;48.266;14.192;2023-04-06T10:30:56;19.87;24.99
75457;SHT31;64036;48.266;14.192;2023-04-06T10:33:23;19.74;24.72
75457;SHT31;64036;48.266;14.192;2023-04-06T10:35:49;19.67;24.21
75457;SHT31;64036;48.266;14.192;2023-04-06T10:38:15;19.33;23.86
75457;SHT31;64036;48.266;14.192;2023-04-06T10:40:45;18.88;23.99
75457;SHT31;64036;48.266;14.192;2023-04-06T10:43:18;18.66;24.64
75457;SHT31;64036;48.266;14.192;2023-04-06T10:45:54;18.41;24.79
75457;SHT31;64036;48.266;14.192;2023-04-06T10:48:21;18.25;24.44
75457;SHT31;64036;48.266;14.192;2023-04-06T10:50:49;18.27;24.44
75457;SHT31;64036;48.266;14.192;2023-04-06T10:53:26;18.13;25.60
75457;SHT31;64036;48.266;14.192;2023-04-06T10:55:54;18.06;25.34
75457;SHT31;64036;48.266;14.192;2023-04-06T10:58:24;17.81;24.13
75457;SHT31;64036;48.266;14.192;2023-04-06T11:00:51;17.57;24.30
75457;SHT31;64036;48.266;14.192;2023-04-06T11:03:17;17.25;24.13
75457;SHT31;64036;48.266;14.192;2023-04-06T11:05:47;17.53;25.17
75457;SHT31;64036;48.266;14.192;2023-04-06T11:08:28;17.79;25.22
75457;SHT31;64036;48.266;14.192;2023-04-06T11:11:08;17.78;25.58
75457;SHT31;64036;48.266;14.192;2023-04-06T11:16:14;17.40;25.54
75457;SHT31;64036;48.266;14.192;2023-04-06T11:18:55;17.31;25.81
75457;SHT31;64036;48.266;14.192;2023-04-06T11:21:37;17.30;25.93
75457;SHT31;64036;48.266;14.192;2023-04-06T11:24:11;17.33;27.14
75457;SHT31;64036;48.266;14.192;2023-04-06T11:26:39;17.24;27.75
75457;SHT31;64036;48.266;14.192;2023-04-06T11:29:14;17.02;26.38
75457;SHT31;64036;48.266;14.192;2023-04-06T11:31:49;16.99;26.60
75457;SHT31;64036;48.266;14.192;2023-04-06T11:34:23;16.81;27.51
75457;SHT31;64036;48.266;14.192;2023-04-06T11:37:00;16.73;27.57
75457;SHT31;64036;48.266;14.192;2023-04-06T11:39:31;16.71;27.52
75457;SHT31;64036;48.266;14.192;2023-04-06T11:42:01;16.59;27.56
75457;SHT31;64036;48.266;14.192;2023-04-06T11:44:42;16.54;28.16
75457;SHT31;64036;48.266;14.192;2023-04-06T11:47:11;16.50;28.45
75457;SHT31;64036;48.266;14.192;2023-04-06T11:49:39;16.52;27.96
75457;SHT31;64036;48.266;14.192;2023-04-06T11:52:19;16.52;28.69
75457;SHT31;64036;48.266;14.192;2023-04-06T11:54:53;16.57;28.16
75457;SHT31;64036;48.266;14.192;2023-04-06T11:57:22;16.33;28.59
75457;SHT31;64036;48.266;14.192;2023-04-06T11:59:51;16.11;28.24
75457;SHT31;64036;48.266;14.192;2023-04-06T12:02:17;16.05;28.27
75457;SHT31;64036;48.266;14.192;2023-04-06T12:04:43;16.26;29.08
75457;SHT31;64036;48.266;14.192;2023-04-06T12:07:09;16.44;28.06
75457;SHT31;64036;48.266;14.192;2023-04-06T12:09:35;16.25;27.36
75457;SHT31;64036;48.266;14.192;2023-04-06T12:12:02;16.22;27.48
75457;SHT31;64036;48.266;14.192;2023-04-06T12:14:29;16.44;27.86
75457;SHT31;64036;48.266;14.192;2023-04-06T12:16:56;16.34;27.19
75457;SHT31;64036;48.266;14.192;2023-04-06T12:19:23;16.14;28.43
75457;SHT31;64036;48.266;14.192;2023-04-06T12:21:51;15.93;28.96
75457;SHT31;64036;48.266;14.192;2023-04-06T12:24:22;15.96;29.69
75457;SHT31;64036;48.266;14.192;2023-04-06T12:26:47;16.11;29.18
75457;SHT31;64036;48.266;14.192;2023-04-06T12:29:13;16.04;28.67
75457;SHT31;64036;48.266;14.192;2023-04-06T12:31:44;16.05;29.43
75457;SHT31;64036;48.266;14.192;2023-04-06T12:34:10;16.24;29.51
75457;SHT31;64036;48.266;14.192;2023-04-06T12:36:39;16.28;29.16
75457;SHT31;64036;48.266;14.192;2023-04-06T12:39:05;16.25;29.57
75457;SHT31;64036;48.266;14.192;2023-04-06T12:41:31;16.38;29.33
75457;SHT31;64036;48.266;14.192;2023-04-06T12:43:57;16.42;28.84
75457;SHT31;64036;48.266;14.192;2023-04-06T12:46:24;16.32;28.42
75457;SHT31;64036;48.266;14.192;2023-04-06T12:48:50;16.35;28.02
75457;SHT31;64036;48.266;14.192;2023-04-06T12:51:20;16.14;28.12
75457;SHT31;64036;48.266;14.192;2023-04-06T12:53:46;16.09;28.85
75457;SHT31;64036;48.266;14.192;2023-04-06T12:56:13;16.22;28.21
75457;SHT31;64036;48.266;14.192;2023-04-06T12:58:42;16.10;27.82
75457;SHT31;64036;48.266;14.192;2023-04-06T13:01:08;16.08;28.79
75457;SHT31;64036;48.266;14.192;2023-04-06T13:03:36;15.97;28.65
75457;SHT31;64036;48.266;14.192;2023-04-06T13:06:02;15.75;29.10
75457;SHT31;64036;48.266;14.192;2023-04-06T13:08:28;15.56;29.23
75457;SHT31;64036;48.266;14.192;2023-04-06T13:10:54;15.47;28.93
75457;SHT31;64036;48.266;14.192;2023-04-06T13:13:21;15.35;29.61
75457;SHT31;64036;48.266;14.192;2023-04-06T13:15:52;15.37;28.93
75457;SHT31;64036;48.266;14.192;2023-04-06T13:18:18;15.53;28.84
75457;SHT31;64036;48.266;14.192;2023-04-06T13:20:47;15.60;28.63
75457;SHT31;64036;48.266;14.192;2023-04-06T13:23:14;15.51;29.68
75457;SHT31;64036;48.266;14.192;2023-04-06T13:25:42;15.45;29.99
75457;SHT31;64036;48.266;14.192;2023-04-06T13:28:11;15.48;30.18
75457;SHT31;64036;48.266;14.192;2023-04-06T13:30:39;15.50;29.88
75457;SHT31;64036;48.266;14.192;2023-04-06T13:33:05;15.42;29.80
75457;SHT31;64036;48.266;14.192;2023-04-06T13:35:34;15.28;29.73
75457;SHT31;64036;48.266;14.192;2023-04-06T13:38:00;15.10;29.57
75457;SHT31;64036;48.266;14.192;2023-04-06T13:40:26;14.92;29.48
75457;SHT31;64036;48.266;14.192;2023-04-06T13:42:55;14.96;30.45
75457;SHT31;64036;48.266;14.192;2023-04-06T13:45:21;14.94;29.04
75457;SHT31;64036;48.266;14.192;2023-04-06T13:47:47;14.99;28.81
75457;SHT31;64036;48.266;14.192;2023-04-06T13:50:12;14.99;30.04
75457;SHT31;64036;48.266;14.192;2023-04-06T13:52:38;14.90;29.45
75457;SHT31;64036;48.266;14.192;2023-04-06T13:55:04;14.79;29.07
75457;SHT31;64036;48.266;14.192;2023-04-06T13:57:33;14.71;30.02
75457;SHT31;64036;48.266;14.192;2023-04-06T13:59:59;14.59;29.11
75457;SHT31;64036;48.266;14.192;2023-04-06T14:02:25;14.40;28.22
75457;SHT31;64036;48.266;14.192;2023-04-06T14:04:52;14.33;29.17
75457;SHT31;64036;48.266;14.192;2023-04-06T14:07:22;14.29;29.54
75457;SHT31;64036;48.266;14.192;2023-04-06T14:09:48;14.27;29.57
75457;SHT31;64036;48.266;14.192;2023-04-06T14:12:14;14.17;29.51
75457;SHT31;64036;48.266;14.192;2023-04-06T14:14:40;14.06;29.65
75457;SHT31;64036;48.266;14.192;2023-04-06T14:17:07;13.86;29.67
75457;SHT31;64036;48.266;14.192;2023-04-06T14:19:35;13.70;29.74
75457;SHT31;64036;48.266;14.192;2023-04-06T14:22:01;13.74;30.39
75457;SHT31;64036;48.266;14.192;2023-04-06T14:24:27;13.72;30.72
75457;SHT31;64036;48.266;14.192;2023-04-06T14:26:53;13.62;31.18
75457;SHT31;64036;48.266;14.192;2023-04-06T14:29:22;13.53;31.21
75457;SHT31;64036;48.266;14.192;2023-04-06T14:31:52;13.48;32.00
75457;SHT31;64036;48.266;14.192;2023-04-06T14:34:18;13.52;32.26
75457;SHT31;64036;48.266;14.192;2023-04-06T14:36:44;13.47;31.89
75457;SHT31;64036;48.266;14.192;2023-04-06T14:39:10;13.41;32.37
75457;SHT31;64036;48.266;14.192;2023-04-06T14:41:36;13.39;32.22
75457;SHT31;64036;48.266;14.192;2023-04-06T14:44:02;13.37;32.07
75457;SHT31;64036;48.266;14.192;2023-04-06T14:46:28;13.41;31.92
75457;SHT31;64036;48.266;14.192;2023-04-06T14:48:55;13.33;31.54
75457;SHT31;64036;48.266;14.192;2023-04-06T14:51:25;13.23;31.78
75457;SHT31;64036;48.266;14.192;2023-04-06T14:53:52;13.13;31.31
75457;SHT31;64036;48.266;14.192;2023-04-06T14:56:21;12.99;31.40
75457;SHT31;64036;48.266;14.192;2023-04-06T14:58:48;12.90;31.65
75457;SHT31;64036;48.266;14.192;2023-04-06T15:01:18;12.77;32.32
75457;SHT31;64036;48.266;14.192;2023-04-06T15:03:45;12.73;32.89
75457;SHT31;64036;48.266;14.192;2023-04-06T15:06:17;12.57;32.57
75457;SHT31;64036;48.266;14.192;2023-04-06T15:08:48;12.38;32.51
75457;SHT31;64036;48.266;14.192;2023-04-06T15:11:15;12.31;32.90
75457;SHT31;64036;48.266;14.192;2023-04-06T15:13:41;12.33;33.14
75457;SHT31;64036;48.266;14.192;2023-04-06T15:16:12;12.26;33.09
75457;SHT31;64036;48.266;14.192;2023-04-06T15:18:42;12.18;33.38
75457;SHT31;64036;48.266;14.192;2023-04-06T15:21:16;12.12;33.58
75457;SHT31;64036;48.266;14.192;2023-04-06T15:23:48;12.12;32.68
75457;SHT31;64036;48.266;14.192;2023-04-06T15:26:15;12.10;32.37
75457;SHT31;64036;48.266;14.192;2023-04-06T15:28:41;12.07;32.47
75457;SHT31;64036;48.266;14.192;2023-04-06T15:31:13;11.98;32.71
75457;SHT31;64036;48.266;14.192;2023-04-06T15:33:42;11.86;33.45
75457;SHT31;64036;48.266;14.192;2023-04-06T15:36:16;11.73;33.32
75457;SHT31;64036;48.266;14.192;2023-04-06T15:38:54;11.67;34.20
75457;SHT31;64036;48.266;14.192;2023-04-06T15:41:26;11.66;34.38
75457;SHT31;64036;48.266;14.192;2023-04-06T15:43:53;11.64;34.06
75457;SHT31;64036;48.266;14.192;2023-04-06T15:46:19;11.64;33.40
75457;SHT31;64036;48.266;14.192;2023-04-06T15:48:46;11.63;33.15
75457;SHT31;64036;48.266;14.192;2023-04-06T15:51:15;11.57;33.54
75457;SHT31;64036;48.266;14.192;2023-04-06T15:53:53;11.45;33.83
75457;SHT31;64036;48.266;14.192;2023-04-06T15:56:25;11.39;34.34
75457;SHT31;64036;48.266;14.192;2023-04-06T15:58:54;11.28;33.59
75457;SHT31;64036;48.266;14.192;2023-04-06T16:01:20;11.20;33.88
75457;SHT31;64036;48.266;14.192;2023-04-06T16:03:45;11.13;34.42
75457;SHT31;64036;48.266;14.192;2023-04-06T16:06:11;11.05;34.02
75457;SHT31;64036;48.266;14.192;2023-04-06T16:08:38;10.97;34.19
75457;SHT31;64036;48.266;14.192;2023-04-06T16:11:05;10.91;34.02
75457;SHT31;64036;48.266;14.192;2023-04-06T16:13:31;10.88;34.55
75457;SHT31;64036;48.266;14.192;2023-04-06T16:16:00;10.83;34.72
75457;SHT31;64036;48.266;14.192;2023-04-06T16:18:32;10.79;34.85
75457;SHT31;64036;48.266;14.192;2023-04-06T16:20:58;10.73;33.90
75457;SHT31;64036;48.266;14.192;2023-04-06T16:23:23;10.66;34.02
75457;SHT31;64036;48.266;14.192;2023-04-06T16:26:03;10.61;34.10
75457;SHT31;64036;48.266;14.192;2023-04-06T16:28:44;10.57;34.15
75457;SHT31;64036;48.266;14.192;2023-04-06T16:31:18;10.53;34.65
75457;SHT31;64036;48.266;14.192;2023-04-06T16:33:46;10.46;34.49
75457;SHT31;64036;48.266;14.192;2023-04-06T16:36:29;10.39;34.76
75457;SHT31;64036;48.266;14.192;2023-04-06T16:39:20;10.36;34.79
75457;SHT31;64036;48.266;14.192;2023-04-06T16:41:53;10.31;34.98
75457;SHT31;64036;48.266;14.192;2023-04-06T16:44:45;10.25;35.02
75457;SHT31;64036;48.266;14.192;2023-04-06T16:47:30;10.19;35.26
75457;SHT31;64036;48.266;14.192;2023-04-06T16:50:07;10.14;35.24
75457;SHT31;64036;48.266;14.192;2023-04-06T16:52:45;10.07;34.86
75457;SHT31;64036;48.266;14.192;2023-04-06T16:55:26;10.03;34.99
75457;SHT31;64036;48.266;14.192;2023-04-06T16:58:13;9.98;35.05
75457;SHT31;64036;48.266;14.192;2023-04-06T17:00:54;9.91;35.56
75457;SHT31;64036;48.266;14.192;2023-04-06T17:03:20;9.85;36.01
75457;SHT31;64036;48.266;14.192;2023-04-06T17:05:45;9.78;35.87
75457;SHT31;64036;48.266;14.192;2023-04-06T17:08:11;9.72;35.93
75457;SHT31;64036;48.266;14.192;2023-04-06T17:10:37;9.65;35.98
75457;SHT31;64036;48.266;14.192;2023-04-06T17:13:03;9.59;36.06
75457;SHT31;64036;48.266;14.192;2023-04-06T17:15:30;9.52;36.14
75457;SHT31;64036;48.266;14.192;2023-04-06T17:17:56;9.46;36.20
75457;SHT31;64036;48.266;14.192;2023-04-06T17:20:24;9.39;36.34
75457;SHT31;64036;48.266;14.192;2023-04-06T17:22:53;9.32;36.32
75457;SHT31;64036;48.266;14.192;2023-04-06T17:25:29;9.24;36.64
75457;SHT31;64036;48.266;14.192;2023-04-06T17:28:26;9.14;36.93
75457;SHT31;64036;48.266;14.192;2023-04-06T17:31:01;9.05;37.18
75457;SHT31;64036;48.266;14.192;2023-04-06T17:33:27;8.97;37.25
75457;SHT31;64036;48.266;14.192;2023-04-06T17:35:53;8.89;37.50
75457;SHT31;64036;48.266;14.192;2023-04-06T17:38:31;8.80;37.74
75457;SHT31;64036;48.266;14.192;2023-04-06T17:41:00;8.69;37.99
75457;SHT31;64036;48.266;14.192;2023-04-06T17:43:29;8.60;38.24
75457;SHT31;64036;48.266;14.192;2023-04-06T17:45:55;8.52;38.59
75457;SHT31;64036;48.266;14.192;2023-04-06T17:48:21;8.43;38.84
75457;SHT31;64036;48.266;14.192;2023-04-06T17:50:53;8.35;38.95
75457;SHT31;64036;48.266;14.192;2023-04-06T17:53:19;8.27;39.26
75457;SHT31;64036;48.266;14.192;2023-04-06T17:55:48;8.20;39.27
75457;SHT31;64036;48.266;14.192;2023-04-06T17:58:14;8.13;39.32
75457;SHT31;64036;48.266;14.192;2023-04-06T18:00:40;8.07;39.34
75457;SHT31;64036;48.266;14.192;2023-04-06T18:03:06;8.02;39.36
75457;SHT31;64036;48.266;14.192;2023-04-06T18:05:32;7.96;39.51
75457;SHT31;64036;48.266;14.192;2023-04-06T18:07:58;7.88;39.67
75457;SHT31;64036;48.266;14.192;2023-04-06T18:10:24;7.79;39.99
75457;SHT31;64036;48.266;14.192;2023-04-06T18:12:50;7.72;40.14
75457;SHT31;64036;48.266;14.192;2023-04-06T18:15:28;7.65;40.27
75457;SHT31;64036;48.266;14.192;2023-04-06T18:18:04;7.58;40.42
75457;SHT31;64036;48.266;14.192;2023-04-06T18:20:31;7.51;40.54
75457;SHT31;64036;48.266;14.192;2023-04-06T18:26:24;7.33;40.88
75457;SHT31;64036;48.266;14.192;2023-04-06T18:29:01;7.24;41.05
75457;SHT31;64036;48.266;14.192;2023-04-06T18:31:27;7.16;41.29
75457;SHT31;64036;48.266;14.192;2023-04-06T18:33:58;7.05;41.59
75457;SHT31;64036;48.266;14.192;2023-04-06T18:36:27;6.95;41.84
75457;SHT31;64036;48.266;14.192;2023-04-06T18:39:12;6.86;41.93
75457;SHT31;64036;48.266;14.192;2023-04-06T18:41:38;6.77;42.19
75457;SHT31;64036;48.266;14.192;2023-04-06T18:44:06;6.69;42.38
75457;SHT31;64036;48.266;14.192;2023-04-06T18:46:45;6.60;42.57
75457;SHT31;64036;48.266;14.192;2023-04-06T18:49:14;6.55;42.61
75457;SHT31;64036;48.266;14.192;2023-04-06T18:51:50;6.49;42.79
75457;SHT31;64036;48.266;14.192;2023-04-06T18:54:49;6.39;42.99
75457;SHT31;64036;48.266;14.192;2023-04-06T18:57:52;6.28;43.26
75457;SHT31;64036;48.266;14.192;2023-04-06T19:07:03;6.09;44.56
75457;SHT31;64036;48.266;14.192;2023-04-06T19:12:17;5.97;44.94
75457;SHT31;64036;48.266;14.192;2023-04-06T19:14:43;5.91;45.19
75457;SHT31;64036;48.266;14.192;2023-04-06T19:17:43;5.87;45.33
75457;SHT31;64036;48.266;14.192;2023-04-06T19:30:01;5.61;46.17
75457;SHT31;64036;48.266;14.192;2023-04-06T19:33:28;5.57;46.44
75457;SHT31;64036;48.266;14.192;2023-04-06T19:39:46;5.50;46.71
75457;SHT31;64036;48.266;14.192;2023-04-06T19:42:53;5.50;46.78
75457;SHT31;64036;48.266;14.192;2023-04-06T19:46:15;5.48;46.95
75457;SHT31;64036;48.266;14.192;2023-04-06T19:55:22;5.43;47.58
75457;SHT31;64036;48.266;14.192;2023-04-06T20:05:39;5.29;47.85
75457;SHT31;64036;48.266;14.192;2023-04-06T20:08:31;5.27;48.16
75457;SHT31;64036;48.266;14.192;2023-04-06T20:12:09;5.26;48.16
75457;SHT31;64036;48.266;14.192;2023-04-06T20:15:24;5.26;47.90
75457;SHT31;64036;48.266;14.192;2023-04-06T20:18:57;5.24;47.89
75457;SHT31;64036;48.266;14.192;2023-04-06T20:22:05;5.25;47.72
75457;SHT31;64036;48.266;14.192;2023-04-06T20:24:36;5.24;47.95